sensor_id;sensor_type;location;lat;lon;timestamp;pressure;altitude;pressure_sealevel;temperature;humidity
4972;BME280;2501;51.214;6.768;2023-06-14T00:00:18;100996.66;;;20.94;42.41
4972;BME280;2501;51.214;6.768;2023-06-14T00:02:47;101004.75;;;20.63;43.50
4972;BME280;2501;51.214;6.768;2023-06-14T00:05:16;100999.72;;;20.54;43.12
4972;BME280;2501;51.214;6.768;2023-06-14T00:07:44;101005.84;;;20.57;43.46
4972;BME280;2501;51.214;6.768;2023-06-14T00:10:14;101004.31;;;20.48;43.93
4972;BME280;2501;51.214;6.768;2023-06-14T00:12:45;101014.03;;;20.20;44.70
4972;BME280;2501;51.214;6.768;2023-06-14T00:15:14;101014.88;;;20.22;44.76
4972;BME280;2501;51.214;6.768;2023-06-14T00:17:42;101022.91;;;20.21;44.17
4972;BME280;2501;51.214;6.768;2023-06-14T00:20:12;101021.31;;;20.13;45.12
4972;BME280;2501;51.214;6.768;2023-06-14T00:22:41;101013.91;;;20.25;44.02
4972;BME280;2501;51.214;6.768;2023-06-14T00:25:10;101016.44;;;20.28;42.38
4972;BME280;2501;51.214;6.768;2023-06-14T00:27:39;101025.28;;;20.30;41.15
4972;BME280;2501;51.214;6.768;2023-06-14T00:30:11;101022.44;;;20.06;41.90
4972;BME280;2501;51.214;6.768;2023-06-14T00:32:40;101015.31;;;20.07;41.69
4972;BME280;2501;51.214;6.768;2023-06-14T00:35:08;101019.91;;;20.31;40.83
4972;BME280;2501;51.214;6.768;2023-06-14T00:37:37;101021.66;;;20.32;40.88
4972;BME280;2501;51.214;6.768;2023-06-14T00:40:06;101024.31;;;20.32;40.73
4972;BME280;2501;51.214;6.768;2023-06-14T00:42:35;101023.22;;;20.41;40.45
4972;BME280;2501;51.214;6.768;2023-06-14T00:45:04;101020.53;;;20.41;40.42
4972;BME280;2501;51.214;6.768;2023-06-14T00:47:37;101020.53;;;20.41;40.68
4972;BME280;2501;51.214;6.768;2023-06-14T00:50:07;101023.56;;;20.27;40.49
4972;BME280;2501;51.214;6.768;2023-06-14T00:52:37;101027.09;;;20.28;40.22
4972;BME280;2501;51.214;6.768;2023-06-14T00:55:06;101020.81;;;20.30;40.54
4972;BME280;2501;51.214;6.768;2023-06-14T00:57:35;101018.59;;;20.15;41.24
4972;BME280;2501;51.214;6.768;2023-06-14T01:00:06;101028.00;;;19.97;41.43
4972;BME280;2501;51.214;6.768;2023-06-14T01:02:40;101030.22;;;19.81;41.77
4972;BME280;2501;51.214;6.768;2023-06-14T01:05:09;101032.72;;;19.88;41.79
4972;BME280;2501;51.214;6.768;2023-06-14T01:07:54;101038.78;;;19.93;41.75
4972;BME280;2501;51.214;6.768;2023-06-14T01:10:32;101034.34;;;19.92;41.91
4972;BME280;2501;51.214;6.768;2023-06-14T01:13:06;101034.59;;;19.84;41.83
4972;BME280;2501;51.214;6.768;2023-06-14T01:15:37;101035.94;;;19.68;42.01
4972;BME280;2501;51.214;6.768;2023-06-14T01:18:08;101047.06;;;19.48;42.95
4972;BME280;2501;51.214;6.768;2023-06-14T01:20:43;101045.34;;;19.45;43.08
4972;BME280;2501;51.214;6.768;2023-06-14T01:23:18;101047.06;;;19.50;42.81
4972;BME280;2501;51.214;6.768;2023-06-14T01:25:47;101050.19;;;19.30;43.31
4972;BME280;2501;51.214;6.768;2023-06-14T01:28:19;101044.13;;;19.23;43.69
4972;BME280;2501;51.214;6.768;2023-06-14T01:30:50;101043.81;;;19.37;43.40
4972;BME280;2501;51.214;6.768;2023-06-14T01:33:22;101044.84;;;19.31;43.42
4972;BME280;2501;51.214;6.768;2023-06-14T01:35:52;101043.59;;;19.44;43.12
4972;BME280;2501;51.214;6.768;2023-06-14T01:38:25;101042.84;;;19.39;43.14
4972;BME280;2501;51.214;6.768;2023-06-14T01:40:56;101042.59;;;19.15;43.90
4972;BME280;2501;51.214;6.768;2023-06-14T01:43:26;101046.75;;;19.25;43.63
4972;BME280;2501;51.214;6.768;2023-06-14T01:45:58;101044.88;;;19.30;43.32
4972;BME280;2501;51.214;6.768;2023-06-14T01:48:27;101050.25;;;19.27;43.48
4972;BME280;2501;51.214;6.768;2023-06-14T01:50:56;101054.53;;;19.34;43.54
4972;BME280;2501;51.214;6.768;2023-06-14T01:53:27;101048.41;;;19.30;43.52
4972;BME280;2501;51.214;6.768;2023-06-14T01:55:55;101054.59;;;19.31;43.26
4972;BME280;2501;51.214;6.768;2023-06-14T01:58:24;101052.97;;;19.25;43.17
4972;BME280;2501;51.214;6.768;2023-06-14T02:00:52;101045.31;;;19.11;43.36
4972;BME280;2501;51.214;6.768;2023-06-14T02:03:23;101042.78;;;19.07;43.45
4972;BME280;2501;51.214;6.768;2023-06-14T02:05:52;101040.69;;;19.21;43.54
4972;BME280;2501;51.214;6.768;2023-06-14T02:08:21;101048.75;;;19.17;43.65
4972;BME280;2501;51.214;6.768;2023-06-14T02:10:53;101047.03;;;19.14;43.47
4972;BME280;2501;51.214;6.768;2023-06-14T02:13:21;101039.41;;;19.00;44.10
4972;BME280;2501;51.214;6.768;2023-06-14T02:15:49;101047.72;;;19.22;43.44
4972;BME280;2501;51.214;6.768;2023-06-14T02:18:20;101036.69;;;19.03;43.72
4972;BME280;2501;51.214;6.768;2023-06-14T02:20:48;101045.22;;;19.16;43.24
4972;BME280;2501;51.214;6.768;2023-06-14T02:23:16;101042.09;;;18.99;43.34
4972;BME280;2501;51.214;6.768;2023-06-14T02:25:45;101039.13;;;18.74;44.42
4972;BME280;2501;51.214;6.768;2023-06-14T02:28:16;101045.75;;;18.95;43.47
4972;BME280;2501;51.214;6.768;2023-06-14T02:30:44;101047.84;;;18.81;44.14
4972;BME280;2501;51.214;6.768;2023-06-14T02:33:13;101051.78;;;18.64;44.39
4972;BME280;2501;51.214;6.768;2023-06-14T02:35:43;101044.00;;;18.54;44.59
4972;BME280;2501;51.214;6.768;2023-06-14T02:38:11;101054.69;;;18.52;44.29
4972;BME280;2501;51.214;6.768;2023-06-14T02:40:40;101051.31;;;18.44;44.59
4972;BME280;2501;51.214;6.768;2023-06-14T02:43:08;101050.53;;;18.37;45.14
4972;BME280;2501;51.214;6.768;2023-06-14T02:45:40;101054.72;;;18.51;44.57
4972;BME280;2501;51.214;6.768;2023-06-14T02:48:08;101054.88;;;18.83;43.58
4972;BME280;2501;51.214;6.768;2023-06-14T02:50:36;101064.25;;;18.99;43.24
4972;BME280;2501;51.214;6.768;2023-06-14T02:53:05;101057.25;;;18.95;43.38
4972;BME280;2501;51.214;6.768;2023-06-14T02:55:33;101060.75;;;18.57;44.57
4972;BME280;2501;51.214;6.768;2023-06-14T02:58:05;101062.84;;;18.83;44.18
4972;BME280;2501;51.214;6.768;2023-06-14T03:00:33;101068.03;;;18.49;45.27
4972;BME280;2501;51.214;6.768;2023-06-14T03:03:06;101073.81;;;18.69;44.58
4972;BME280;2501;51.214;6.768;2023-06-14T03:05:37;101072.81;;;18.73;44.38
4972;BME280;2501;51.214;6.768;2023-06-14T03:08:06;101084.38;;;18.29;45.74
4972;BME280;2501;51.214;6.768;2023-06-14T03:10:35;101084.59;;;18.62;45.04
4972;BME280;2501;51.214;6.768;2023-06-14T03:13:04;101083.09;;;18.47;46.56
4972;BME280;2501;51.214;6.768;2023-06-14T03:15:33;101087.47;;;18.51;47.00
4972;BME280;2501;51.214;6.768;2023-06-14T03:18:01;101101.59;;;18.08;47.76
4972;BME280;2501;51.214;6.768;2023-06-14T03:20:33;101101.13;;;17.87;50.01
4972;BME280;2501;51.214;6.768;2023-06-14T03:23:02;101099.84;;;18.07;49.11
4972;BME280;2501;51.214;6.768;2023-06-14T03:25:31;101101.09;;;18.34;47.62
4972;BME280;2501;51.214;6.768;2023-06-14T03:28:01;101095.53;;;18.45;45.65
4972;BME280;2501;51.214;6.768;2023-06-14T03:30:30;101101.56;;;18.10;46.22
4972;BME280;2501;51.214;6.768;2023-06-14T03:32:58;101101.72;;;18.46;45.20
4972;BME280;2501;51.214;6.768;2023-06-14T03:35:28;101099.91;;;18.48;45.12
4972;BME280;2501;51.214;6.768;2023-06-14T03:37:59;101108.53;;;18.60;44.37
4972;BME280;2501;51.214;6.768;2023-06-14T03:40:28;101106.44;;;18.74;43.79
4972;BME280;2501;51.214;6.768;2023-06-14T03:42:56;101108.25;;;18.72;44.51
4972;BME280;2501;51.214;6.768;2023-06-14T03:45:25;101106.34;;;18.79;44.84
4972;BME280;2501;51.214;6.768;2023-06-14T03:47:53;101111.69;;;18.77;43.62
4972;BME280;2501;51.214;6.768;2023-06-14T03:50:23;101107.28;;;18.35;44.24
4972;BME280;2501;51.214;6.768;2023-06-14T03:52:52;101114.59;;;18.22;44.98
4972;BME280;2501;51.214;6.768;2023-06-14T03:55:23;101116.41;;;18.20;44.85
4972;BME280;2501;51.214;6.768;2023-06-14T03:57:53;101123.75;;;18.06;45.97
4972;BME280;2501;51.214;6.768;2023-06-14T04:00:21;101128.25;;;18.01;45.48
4972;BME280;2501;51.214;6.768;2023-06-14T04:02:50;101121.28;;;17.97;44.91
4972;BME280;2501;51.214;6.768;2023-06-14T04:05:18;101126.13;;;18.20;45.38
4972;BME280;2501;51.214;6.768;2023-06-14T04:07:47;101125.00;;;18.33;47.71
4972;BME280;2501;51.214;6.768;2023-06-14T04:10:17;101130.31;;;18.34;51.66
4972;BME280;2501;51.214;6.768;2023-06-14T04:12:48;101131.50;;;18.18;52.63
4972;BME280;2501;51.214;6.768;2023-06-14T04:15:17;101140.09;;;18.31;53.08
4972;BME280;2501;51.214;6.768;2023-06-14T04:17:46;101138.38;;;17.82;54.67
4972;BME280;2501;51.214;6.768;2023-06-14T04:20:14;101133.81;;;17.89;54.15
4972;BME280;2501;51.214;6.768;2023-06-14T04:22:42;101142.38;;;18.03;52.90
4972;BME280;2501;51.214;6.768;2023-06-14T04:25:11;101139.47;;;17.69;54.27
4972;BME280;2501;51.214;6.768;2023-06-14T04:27:40;101144.00;;;18.12;53.42
4972;BME280;2501;51.214;6.768;2023-06-14T04:30:12;101147.59;;;18.09;52.80
4972;BME280;2501;51.214;6.768;2023-06-14T04:32:40;101155.22;;;18.26;51.99
4972;BME280;2501;51.214;6.768;2023-06-14T04:35:09;101160.78;;;18.14;47.92
4972;BME280;2501;51.214;6.768;2023-06-14T04:37:37;101155.31;;;18.21;46.01
4972;BME280;2501;51.214;6.768;2023-06-14T04:40:10;101150.50;;;18.41;45.85
4972;BME280;2501;51.214;6.768;2023-06-14T04:42:38;101157.41;;;18.50;45.36
4972;BME280;2501;51.214;6.768;2023-06-14T04:45:12;101166.06;;;18.61;45.29
4972;BME280;2501;51.214;6.768;2023-06-14T04:47:42;101159.03;;;18.59;45.08
4972;BME280;2501;51.214;6.768;2023-06-14T04:50:11;101161.91;;;18.47;45.50
4972;BME280;2501;51.214;6.768;2023-06-14T04:52:40;101168.06;;;18.49;45.14
4972;BME280;2501;51.214;6.768;2023-06-14T04:55:09;101163.50;;;18.55;44.88
4972;BME280;2501;51.214;6.768;2023-06-14T04:57:39;101170.50;;;18.61;44.87
4972;BME280;2501;51.214;6.768;2023-06-14T05:00:08;101170.88;;;18.41;44.86
4972;BME280;2501;51.214;6.768;2023-06-14T05:02:40;101180.41;;;18.05;45.37
4972;BME280;2501;51.214;6.768;2023-06-14T05:05:09;101184.22;;;18.36;45.21
4972;BME280;2501;51.214;6.768;2023-06-14T05:07:37;101181.44;;;18.44;45.23
4972;BME280;2501;51.214;6.768;2023-06-14T05:10:07;101194.78;;;18.41;45.28
4972;BME280;2501;51.214;6.768;2023-06-14T05:12:35;101192.00;;;18.47;45.08
4972;BME280;2501;51.214;6.768;2023-06-14T05:15:05;101196.84;;;18.71;44.73
4972;BME280;2501;51.214;6.768;2023-06-14T05:17:34;101192.09;;;18.42;45.27
4972;BME280;2501;51.214;6.768;2023-06-14T05:20:08;101186.84;;;18.84;44.31
4972;BME280;2501;51.214;6.768;2023-06-14T05:22:38;101185.91;;;18.87;44.75
4972;BME280;2501;51.214;6.768;2023-06-14T05:25:07;101187.25;;;18.66;44.76
4972;BME280;2501;51.214;6.768;2023-06-14T05:27:36;101187.88;;;18.32;45.32
4972;BME280;2501;51.214;6.768;2023-06-14T05:30:08;101188.38;;;18.53;45.14
4972;BME280;2501;51.214;6.768;2023-06-14T05:32:36;101197.09;;;18.59;45.24
4972;BME280;2501;51.214;6.768;2023-06-14T05:35:08;101197.97;;;18.60;45.11
4972;BME280;2501;51.214;6.768;2023-06-14T05:37:37;101189.53;;;18.83;44.45
4972;BME280;2501;51.214;6.768;2023-06-14T05:40:07;101193.69;;;18.53;45.37
4972;BME280;2501;51.214;6.768;2023-06-14T05:42:35;101193.16;;;18.78;44.75
4972;BME280;2501;51.214;6.768;2023-06-14T05:45:05;101196.59;;;18.84;44.66
4972;BME280;2501;51.214;6.768;2023-06-14T05:47:34;101204.94;;;18.67;45.18
4972;BME280;2501;51.214;6.768;2023-06-14T05:50:03;101200.75;;;18.97;44.60
4972;BME280;2501;51.214;6.768;2023-06-14T05:52:34;101206.97;;;18.53;45.39
4972;BME280;2501;51.214;6.768;2023-06-14T05:55:04;101210.72;;;18.87;44.80
4972;BME280;2501;51.214;6.768;2023-06-14T05:57:32;101213.81;;;19.06;44.18
4972;BME280;2501;51.214;6.768;2023-06-14T06:00:01;101204.84;;;19.11;44.09
4972;BME280;2501;51.214;6.768;2023-06-14T06:02:35;101214.69;;;19.06;44.40
4972;BME280;2501;51.214;6.768;2023-06-14T06:05:04;101210.97;;;19.15;44.29
4972;BME280;2501;51.214;6.768;2023-06-14T06:07:35;101214.63;;;19.51;43.61
4972;BME280;2501;51.214;6.768;2023-06-14T06:10:06;101219.41;;;19.35;44.20
4972;BME280;2501;51.214;6.768;2023-06-14T06:12:34;101222.63;;;19.48;43.90
4972;BME280;2501;51.214;6.768;2023-06-14T06:15:04;101223.44;;;19.53;43.65
4972;BME280;2501;51.214;6.768;2023-06-14T06:17:33;101219.97;;;19.50;43.74
4972;BME280;2501;51.214;6.768;2023-06-14T06:20:02;101218.47;;;19.75;43.72
4972;BME280;2501;51.214;6.768;2023-06-14T06:22:31;101217.41;;;19.82;43.01
4972;BME280;2501;51.214;6.768;2023-06-14T06:25:03;101228.47;;;20.01;43.03
4972;BME280;2501;51.214;6.768;2023-06-14T06:27:32;101219.97;;;19.87;43.07
4972;BME280;2501;51.214;6.768;2023-06-14T06:30:01;101228.47;;;20.35;42.04
4972;BME280;2501;51.214;6.768;2023-06-14T06:32:29;101220.50;;;20.01;42.79
4972;BME280;2501;51.214;6.768;2023-06-14T06:34:58;101226.53;;;20.07;42.74
4972;BME280;2501;51.214;6.768;2023-06-14T06:37:27;101220.25;;;20.44;41.95
4972;BME280;2501;51.214;6.768;2023-06-14T06:39:55;101225.41;;;20.16;42.42
4972;BME280;2501;51.214;6.768;2023-06-14T06:42:26;101226.69;;;20.35;41.94
4972;BME280;2501;51.214;6.768;2023-06-14T06:44:55;101230.66;;;20.19;41.70
4972;BME280;2501;51.214;6.768;2023-06-14T06:47:23;101235.50;;;20.39;41.59
4972;BME280;2501;51.214;6.768;2023-06-14T06:49:52;101236.72;;;20.60;40.58
4972;BME280;2501;51.214;6.768;2023-06-14T06:52:21;101230.28;;;20.67;40.66
4972;BME280;2501;51.214;6.768;2023-06-14T06:54:49;101235.31;;;20.77;40.28
4972;BME280;2501;51.214;6.768;2023-06-14T06:57:20;101239.38;;;20.91;40.22
4972;BME280;2501;51.214;6.768;2023-06-14T06:59:51;101235.44;;;21.04;39.53
4972;BME280;2501;51.214;6.768;2023-06-14T07:02:19;101237.75;;;21.14;38.05
4972;BME280;2501;51.214;6.768;2023-06-14T07:04:48;101244.75;;;21.20;37.30
4972;BME280;2501;51.214;6.768;2023-06-14T07:07:17;101246.28;;;21.29;36.78
4972;BME280;2501;51.214;6.768;2023-06-14T07:09:46;101243.06;;;21.16;36.84
4972;BME280;2501;51.214;6.768;2023-06-14T07:12:14;101246.84;;;21.09;36.64
4972;BME280;2501;51.214;6.768;2023-06-14T07:14:43;101247.88;;;21.03;36.58
4972;BME280;2501;51.214;6.768;2023-06-14T07:17:14;101248.13;;;21.27;36.65
4972;BME280;2501;51.214;6.768;2023-06-14T07:19:42;101238.94;;;21.35;36.37
4972;BME280;2501;51.214;6.768;2023-06-14T07:22:11;101248.03;;;21.58;36.11
4972;BME280;2501;51.214;6.768;2023-06-14T07:24:39;101246.34;;;21.55;35.99
4972;BME280;2501;51.214;6.768;2023-06-14T07:27:08;101252.75;;;21.77;35.76
4972;BME280;2501;51.214;6.768;2023-06-14T07:29:38;101242.84;;;21.53;34.83
4972;BME280;2501;51.214;6.768;2023-06-14T07:32:07;101241.69;;;21.62;34.96
4972;BME280;2501;51.214;6.768;2023-06-14T07:34:38;101248.09;;;21.56;34.86
4972;BME280;2501;51.214;6.768;2023-06-14T07:37:06;101239.41;;;21.77;34.78
4972;BME280;2501;51.214;6.768;2023-06-14T07:39:35;101242.75;;;21.82;34.78
4972;BME280;2501;51.214;6.768;2023-06-14T07:42:04;101246.66;;;22.00;34.75
4972;BME280;2501;51.214;6.768;2023-06-14T07:44:32;101247.44;;;21.76;35.35
4972;BME280;2501;51.214;6.768;2023-06-14T07:47:01;101247.31;;;21.52;35.17
4972;BME280;2501;51.214;6.768;2023-06-14T07:49:29;101252.38;;;21.62;34.87
4972;BME280;2501;51.214;6.768;2023-06-14T07:52:00;101245.19;;;21.64;35.11
4972;BME280;2501;51.214;6.768;2023-06-14T07:54:30;101243.16;;;21.70;34.28
4972;BME280;2501;51.214;6.768;2023-06-14T07:56:59;101240.00;;;22.13;33.45
4972;BME280;2501;51.214;6.768;2023-06-14T07:59:28;101248.59;;;21.95;33.26
4972;BME280;2501;51.214;6.768;2023-06-14T08:01:56;101245.00;;;21.68;33.69
4972;BME280;2501;51.214;6.768;2023-06-14T08:04:25;101254.53;;;22.05;33.08
4972;BME280;2501;51.214;6.768;2023-06-14T08:06:53;101255.69;;;21.68;34.13
4972;BME280;2501;51.214;6.768;2023-06-14T08:09:24;101259.31;;;21.66;33.70
4972;BME280;2501;51.214;6.768;2023-06-14T08:11:54;101256.91;;;21.86;33.69
4972;BME280;2501;51.214;6.768;2023-06-14T08:14:22;101253.34;;;21.85;34.09
4972;BME280;2501;51.214;6.768;2023-06-14T08:16:50;101256.44;;;21.73;33.21
4972;BME280;2501;51.214;6.768;2023-06-14T08:19:19;101245.88;;;21.97;33.48
4972;BME280;2501;51.214;6.768;2023-06-14T08:21:48;101249.63;;;22.17;33.44
4972;BME280;2501;51.214;6.768;2023-06-14T08:24:16;101251.28;;;22.21;33.04
4972;BME280;2501;51.214;6.768;2023-06-14T08:26:47;101256.59;;;21.95;33.01
4972;BME280;2501;51.214;6.768;2023-06-14T08:29:16;101253.34;;;22.13;32.22
4972;BME280;2501;51.214;6.768;2023-06-14T08:31:44;101264.91;;;21.86;33.17
4972;BME280;2501;51.214;6.768;2023-06-14T08:34:13;101254.13;;;21.63;33.23
4972;BME280;2501;51.214;6.768;2023-06-14T08:36:41;101251.97;;;21.74;34.52
4972;BME280;2501;51.214;6.768;2023-06-14T08:39:10;101259.88;;;21.77;34.29
4972;BME280;2501;51.214;6.768;2023-06-14T08:41:38;101258.84;;;21.53;35.62
4972;BME280;2501;51.214;6.768;2023-06-14T08:44:09;101264.94;;;21.58;35.63
4972;BME280;2501;51.214;6.768;2023-06-14T08:46:38;101252.84;;;21.74;35.31
4972;BME280;2501;51.214;6.768;2023-06-14T08:49:08;101261.81;;;21.72;34.81
4972;BME280;2501;51.214;6.768;2023-06-14T08:51:39;101263.56;;;21.99;35.33
4972;BME280;2501;51.214;6.768;2023-06-14T08:54:10;101252.25;;;21.93;35.75
4972;BME280;2501;51.214;6.768;2023-06-14T08:56:41;101258.22;;;22.27;35.52
4972;BME280;2501;51.214;6.768;2023-06-14T08:59:12;101253.59;;;22.06;35.35
4972;BME280;2501;51.214;6.768;2023-06-14T09:01:40;101250.22;;;21.99;36.06
4972;BME280;2501;51.214;6.768;2023-06-14T09:04:10;101251.66;;;22.11;36.39
4972;BME280;2501;51.214;6.768;2023-06-14T09:06:39;101254.03;;;21.92;35.63
4972;BME280;2501;51.214;6.768;2023-06-14T09:09:09;101257.63;;;21.91;36.20
4972;BME280;2501;51.214;6.768;2023-06-14T09:11:37;101266.66;;;21.87;35.53
4972;BME280;2501;51.214;6.768;2023-06-14T09:14:06;101264.19;;;21.81;35.49
4972;BME280;2501;51.214;6.768;2023-06-14T09:16:37;101267.28;;;21.95;36.27
4972;BME280;2501;51.214;6.768;2023-06-14T09:19:06;101267.34;;;21.66;36.75
4972;BME280;2501;51.214;6.768;2023-06-14T09:21:35;101260.03;;;21.72;37.28
4972;BME280;2501;51.214;6.768;2023-06-14T09:24:05;101264.25;;;21.79;37.47
4972;BME280;2501;51.214;6.768;2023-06-14T09:26:38;101266.50;;;21.92;37.22
4972;BME280;2501;51.214;6.768;2023-06-14T09:29:09;101263.56;;;21.73;37.70
4972;BME280;2501;51.214;6.768;2023-06-14T09:31:40;101271.84;;;21.92;37.10
4972;BME280;2501;51.214;6.768;2023-06-14T09:34:09;101260.44;;;22.14;37.12
4972;BME280;2501;51.214;6.768;2023-06-14T09:36:39;101267.69;;;22.11;36.17
4972;BME280;2501;51.214;6.768;2023-06-14T09:39:08;101273.94;;;21.82;34.91
4972;BME280;2501;51.214;6.768;2023-06-14T09:41:38;101281.00;;;21.57;36.21
4972;BME280;2501;51.214;6.768;2023-06-14T09:44:09;101279.81;;;21.37;36.89
4972;BME280;2501;51.214;6.768;2023-06-14T09:46:40;101290.66;;;21.61;37.21
4972;BME280;2501;51.214;6.768;2023-06-14T09:49:09;101284.72;;;21.51;36.96
4972;BME280;2501;51.214;6.768;2023-06-14T09:51:45;101292.19;;;21.09;36.95
4972;BME280;2501;51.214;6.768;2023-06-14T09:54:16;101283.09;;;21.14;36.94
4972;BME280;2501;51.214;6.768;2023-06-14T09:56:47;101276.69;;;21.23;36.30
4972;BME280;2501;51.214;6.768;2023-06-14T09:59:19;101300.59;;;21.26;35.97
4972;BME280;2501;51.214;6.768;2023-06-14T10:01:57;101289.28;;;21.16;36.57
4972;BME280;2501;51.214;6.768;2023-06-14T10:04:30;101285.38;;;21.30;36.07
4972;BME280;2501;51.214;6.768;2023-06-14T10:07:00;101290.72;;;21.30;36.14
4972;BME280;2501;51.214;6.768;2023-06-14T10:09:29;101296.78;;;21.35;36.38
4972;BME280;2501;51.214;6.768;2023-06-14T10:11:58;101285.50;;;21.54;35.92
4972;BME280;2501;51.214;6.768;2023-06-14T10:14:27;101294.00;;;21.95;35.85
4972;BME280;2501;51.214;6.768;2023-06-14T10:17:04;101290.09;;;21.49;36.45
4972;BME280;2501;51.214;6.768;2023-06-14T10:19:37;101276.16;;;21.68;35.57
4972;BME280;2501;51.214;6.768;2023-06-14T10:22:12;101280.78;;;21.91;35.60
4972;BME280;2501;51.214;6.768;2023-06-14T10:24:44;101266.72;;;22.13;35.12
4972;BME280;2501;51.214;6.768;2023-06-14T10:27:14;101291.78;;;22.09;35.27
4972;BME280;2501;51.214;6.768;2023-06-14T10:30:07;101282.19;;;22.02;35.36
4972;BME280;2501;51.214;6.768;2023-06-14T10:33:05;101282.16;;;21.76;35.74
4972;BME280;2501;51.214;6.768;2023-06-14T10:35:35;101282.19;;;22.02;35.63
4972;BME280;2501;51.214;6.768;2023-06-14T10:38:08;101275.91;;;21.77;35.77
4972;BME280;2501;51.214;6.768;2023-06-14T10:40:37;101270.25;;;22.14;35.15
4972;BME280;2501;51.214;6.768;2023-06-14T10:43:27;101273.13;;;21.80;35.20
4972;BME280;2501;51.214;6.768;2023-06-14T10:46:12;101269.56;;;21.51;35.79
4972;BME280;2501;51.214;6.768;2023-06-14T10:48:44;101278.19;;;21.61;36.04
4972;BME280;2501;51.214;6.768;2023-06-14T10:51:16;101279.34;;;21.80;35.71
4972;BME280;2501;51.214;6.768;2023-06-14T10:53:47;101271.38;;;21.51;36.34
4972;BME280;2501;51.214;6.768;2023-06-14T10:56:29;101271.13;;;22.14;35.18
4972;BME280;2501;51.214;6.768;2023-06-14T10:58:58;101267.06;;;21.75;35.57
4972;BME280;2501;51.214;6.768;2023-06-14T11:01:40;101258.94;;;22.32;35.29
4972;BME280;2501;51.214;6.768;2023-06-14T11:04:13;101262.53;;;22.56;35.08
4972;BME280;2501;51.214;6.768;2023-06-14T11:06:46;101264.50;;;22.76;34.95
4972;BME280;2501;51.214;6.768;2023-06-14T11:09:43;101267.31;;;22.48;35.89
4972;BME280;2501;51.214;6.768;2023-06-14T11:12:17;101266.38;;;22.49;36.06
4972;BME280;2501;51.214;6.768;2023-06-14T11:14:46;101261.72;;;22.54;35.37
4972;BME280;2501;51.214;6.768;2023-06-14T11:17:15;101266.13;;;22.55;35.37
4972;BME280;2501;51.214;6.768;2023-06-14T11:19:46;101251.53;;;22.90;35.29
4972;BME280;2501;51.214;6.768;2023-06-14T11:22:15;101254.75;;;23.00;35.09
4972;BME280;2501;51.214;6.768;2023-06-14T11:24:43;101255.31;;;22.84;35.94
4972;BME280;2501;51.214;6.768;2023-06-14T11:27:13;101259.22;;;22.99;35.37
4972;BME280;2501;51.214;6.768;2023-06-14T11:29:47;101256.88;;;22.65;35.72
4972;BME280;2501;51.214;6.768;2023-06-14T11:32:16;101265.09;;;22.59;35.88
4972;BME280;2501;51.214;6.768;2023-06-14T11:34:49;101255.75;;;22.71;36.34
4972;BME280;2501;51.214;6.768;2023-06-14T11:37:20;101252.94;;;23.00;35.97
4972;BME280;2501;51.214;6.768;2023-06-14T11:39:50;101251.00;;;23.04;35.83
4972;BME280;2501;51.214;6.768;2023-06-14T11:42:18;101255.22;;;22.36;36.94
4972;BME280;2501;51.214;6.768;2023-06-14T11:44:47;101246.19;;;22.40;37.01
4972;BME280;2501;51.214;6.768;2023-06-14T11:47:15;101252.78;;;22.55;36.66
4972;BME280;2501;51.214;6.768;2023-06-14T11:49:44;101248.63;;;22.46;36.88
4972;BME280;2501;51.214;6.768;2023-06-14T11:52:16;101256.47;;;22.77;36.70
4972;BME280;2501;51.214;6.768;2023-06-14T11:54:47;101243.22;;;22.73;36.95
4972;BME280;2501;51.214;6.768;2023-06-14T11:57:18;101236.31;;;23.15;36.20
4972;BME280;2501;51.214;6.768;2023-06-14T11:59:47;101241.25;;;23.03;36.27
4972;BME280;2501;51.214;6.768;2023-06-14T12:02:16;101249.53;;;23.42;35.94
4972;BME280;2501;51.214;6.768;2023-06-14T12:04:47;101225.50;;;23.18;35.95
4972;BME280;2501;51.214;6.768;2023-06-14T12:07:18;101231.00;;;23.37;35.65
4972;BME280;2501;51.214;6.768;2023-06-14T12:10:05;101229.09;;;23.17;35.77
4972;BME280;2501;51.214;6.768;2023-06-14T12:12:36;101242.47;;;23.39;35.80
4972;BME280;2501;51.214;6.768;2023-06-14T12:15:06;101228.22;;;23.84;34.82
4972;BME280;2501;51.214;6.768;2023-06-14T12:17:36;101229.78;;;23.89;34.68
4972;BME280;2501;51.214;6.768;2023-06-14T12:20:09;101241.22;;;23.49;35.33
4972;BME280;2501;51.214;6.768;2023-06-14T12:22:50;101235.50;;;23.13;35.64
4972;BME280;2501;51.214;6.768;2023-06-14T12:25:27;101233.78;;;23.11;35.52
4972;BME280;2501;51.214;6.768;2023-06-14T12:27:56;101226.03;;;23.03;36.56
4972;BME280;2501;51.214;6.768;2023-06-14T12:30:25;101232.91;;;23.34;36.02
4972;BME280;2501;51.214;6.768;2023-06-14T12:32:54;101238.75;;;23.67;35.75
4972;BME280;2501;51.214;6.768;2023-06-14T12:35:22;101226.63;;;23.35;36.07
4972;BME280;2501;51.214;6.768;2023-06-14T12:37:53;101220.41;;;23.34;35.76
4972;BME280;2501;51.214;6.768;2023-06-14T12:40:22;101227.81;;;23.49;35.88
4972;BME280;2501;51.214;6.768;2023-06-14T12:42:50;101232.81;;;23.80;35.29
4972;BME280;2501;51.214;6.768;2023-06-14T12:45:19;101229.34;;;23.56;35.53
4972;BME280;2501;51.214;6.768;2023-06-14T12:47:48;101226.06;;;23.48;35.76
4972;BME280;2501;51.214;6.768;2023-06-14T12:50:17;101219.50;;;23.57;35.52
4972;BME280;2501;51.214;6.768;2023-06-14T12:52:45;101222.97;;;23.59;35.52
4972;BME280;2501;51.214;6.768;2023-06-14T12:55:16;101233.41;;;23.88;35.59
4972;BME280;2501;51.214;6.768;2023-06-14T12:57:45;101234.59;;;24.44;34.33
4972;BME280;2501;51.214;6.768;2023-06-14T13:00:16;101231.94;;;25.41;32.84
4972;BME280;2501;51.214;6.768;2023-06-14T13:02:46;101226.41;;;24.26;34.71
4972;BME280;2501;51.214;6.768;2023-06-14T13:05:16;101216.53;;;24.88;33.57
4972;BME280;2501;51.214;6.768;2023-06-14T13:07:44;101217.94;;;24.96;33.80
4972;BME280;2501;51.214;6.768;2023-06-14T13:10:12;101208.34;;;25.47;33.20
4972;BME280;2501;51.214;6.768;2023-06-14T13:12:43;101213.28;;;25.75;32.92
4972;BME280;2501;51.214;6.768;2023-06-14T13:15:12;101211.13;;;25.82;32.84
4972;BME280;2501;51.214;6.768;2023-06-14T13:17:40;101212.56;;;25.34;32.93
4972;BME280;2501;51.214;6.768;2023-06-14T13:20:14;101211.78;;;25.13;33.49
4972;BME280;2501;51.214;6.768;2023-06-14T13:22:42;101225.44;;;25.09;33.75
4972;BME280;2501;51.214;6.768;2023-06-14T13:25:11;101204.72;;;25.67;32.54